sensor_id;sensor_type;location;lat;lon;timestamp;P1;durP1;ratioP1;P2;durP2;ratioP2
19089;SDS011;9677;50.656;13.064;2022-11-14T00:01:05;17.03;;;14.90;;
19089;SDS011;9677;50.656;13.064;2022-11-14T00:03:53;16.40;;;14.80;;
19089;SDS011;9677;50.656;13.064;2022-11-14T00:06:40;15.93;;;14.30;;
19089;SDS011;9677;50.656;13.064;2022-11-14T00:09:29;17.80;;;15.37;;
19089;SDS011;9677;50.656;13.064;2022-11-14T00:12:17;17.33;;;15.00;;
19089;SDS011;9677;50.656;13.064;2022-11-14T00:15:04;16.80;;;15.03;;
19089;SDS011;9677;50.656;13.064;2022-11-14T00:17:53;16.90;;;14.57;;
19089;SDS011;9677;50.656;13.064;2022-11-14T00:20:40;16.03;;;14.33;;
19089;SDS011;9677;50.656;13.064;2022-11-14T00:23:27;17.20;;;14.80;;
19089;SDS011;9677;50.656;13.064;2022-11-14T00:26:14;15.83;;;14.13;;
19089;SDS011;9677;50.656;13.064;2022-11-14T00:29:03;18.70;;;16.43;;
19089;SDS011;9677;50.656;13.064;2022-11-14T00:31:50;19.40;;;16.30;;
19089;SDS011;9677;50.656;13.064;2022-11-14T00:34:37;18.30;;;16.30;;
19089;SDS011;9677;50.656;13.064;2022-11-14T00:37:24;17.47;;;15.53;;
19089;SDS011;9677;50.656;13.064;2022-11-14T00:40:12;18.03;;;16.00;;
19089;SDS011;9677;50.656;13.064;2022-11-14T00:42:59;18.23;;;15.43;;
19089;SDS011;9677;50.656;13.064;2022-11-14T00:45:48;17.70;;;15.80;;
19089;SDS011;9677;50.656;13.064;2022-11-14T00:48:35;18.30;;;15.93;;
19089;SDS011;9677;50.656;13.064;2022-11-14T00:51:22;17.00;;;15.07;;
19089;SDS011;9677;50.656;13.064;2022-11-14T00:54:09;17.30;;;15.47;;
19089;SDS011;9677;50.656;13.064;2022-11-14T00:56:56;17.20;;;15.30;;
19089;SDS011;9677;50.656;13.064;2022-11-14T00:59:43;20.13;;;15.63;;
19089;SDS011;9677;50.656;13.064;2022-11-14T01:02:32;17.03;;;15.33;;
19089;SDS011;9677;50.656;13.064;2022-11-14T01:05:19;17.67;;;14.97;;
19089;SDS011;9677;50.656;13.064;2022-11-14T01:08:06;19.10;;;14.87;;
19089;SDS011;9677;50.656;13.064;2022-11-14T01:10:53;16.87;;;15.17;;
19089;SDS011;9677;50.656;13.064;2022-11-14T01:13:40;17.70;;;14.93;;
19089;SDS011;9677;50.656;13.064;2022-11-14T01:16:27;17.33;;;15.47;;
19089;SDS011;9677;50.656;13.064;2022-11-14T01:19:16;16.70;;;15.00;;
19089;SDS011;9677;50.656;13.064;2022-11-14T01:22:03;17.20;;;15.40;;
19089;SDS011;9677;50.656;13.064;2022-11-14T01:24:50;16.57;;;14.67;;
19089;SDS011;9677;50.656;13.064;2022-11-14T01:27:39;16.73;;;14.93;;
19089;SDS011;9677;50.656;13.064;2022-11-14T01:30:26;17.50;;;15.00;;
19089;SDS011;9677;50.656;13.064;2022-11-14T01:33:13;16.53;;;14.23;;
19089;SDS011;9677;50.656;13.064;2022-11-14T01:36:01;16.93;;;14.50;;
19089;SDS011;9677;50.656;13.064;2022-11-14T01:38:52;15.40;;;13.77;;
19089;SDS011;9677;50.656;13.064;2022-11-14T01:41:40;18.00;;;14.43;;
19089;SDS011;9677;50.656;13.064;2022-11-14T01:44:37;16.50;;;14.53;;
19089;SDS011;9677;50.656;13.064;2022-11-14T01:47:31;15.43;;;13.50;;
19089;SDS011;9677;50.656;13.064;2022-11-14T01:50:19;15.00;;;13.40;;
19089;SDS011;9677;50.656;13.064;2022-11-14T01:53:07;16.80;;;15.10;;
19089;SDS011;9677;50.656;13.064;2022-11-14T01:55:55;15.90;;;14.20;;
19089;SDS011;9677;50.656;13.064;2022-11-14T01:58:50;15.67;;;13.97;;
19089;SDS011;9677;50.656;13.064;2022-11-14T02:01:42;17.10;;;15.27;;
19089;SDS011;9677;50.656;13.064;2022-11-14T02:07:39;18.07;;;14.97;;
19089;SDS011;9677;50.656;13.064;2022-11-14T02:10:28;14.90;;;13.30;;
19089;SDS011;9677;50.656;13.064;2022-11-14T02:13:15;15.37;;;13.83;;
19089;SDS011;9677;50.656;13.064;2022-11-14T02:16:02;16.20;;;14.40;;
19089;SDS011;9677;50.656;13.064;2022-11-14T02:18:50;15.77;;;14.17;;
19089;SDS011;9677;50.656;13.064;2022-11-14T02:21:38;16.50;;;14.80;;
19089;SDS011;9677;50.656;13.064;2022-11-14T02:24:26;16.17;;;14.57;;
19089;SDS011;9677;50.656;13.064;2022-11-14T02:27:13;14.60;;;13.20;;
19089;SDS011;9677;50.656;13.064;2022-11-14T02:30:03;15.73;;;14.13;;
19089;SDS011;9677;50.656;13.064;2022-11-14T02:32:53;16.13;;;14.20;;
19089;SDS011;9677;50.656;13.064;2022-11-14T02:35:55;16.43;;;14.40;;
19089;SDS011;9677;50.656;13.064;2022-11-14T02:38:44;15.77;;;14.17;;
19089;SDS011;9677;50.656;13.064;2022-11-14T02:41:31;16.20;;;14.50;;
19089;SDS011;9677;50.656;13.064;2022-11-14T02:44:18;16.23;;;14.00;;
19089;SDS011;9677;50.656;13.064;2022-11-14T02:47:05;15.03;;;13.47;;
19089;SDS011;9677;50.656;13.064;2022-11-14T02:49:52;15.57;;;13.90;;
19089;SDS011;9677;50.656;13.064;2022-11-14T02:52:39;15.77;;;14.17;;
19089;SDS011;9677;50.656;13.064;2022-11-14T02:55:27;14.27;;;12.87;;
19089;SDS011;9677;50.656;13.064;2022-11-14T02:58:15;15.20;;;13.70;;
19089;SDS011;9677;50.656;13.064;2022-11-14T03:01:02;15.60;;;14.00;;
19089;SDS011;9677;50.656;13.064;2022-11-14T03:04:05;14.57;;;13.03;;
19089;SDS011;9677;50.656;13.064;2022-11-14T03:06:52;15.40;;;13.70;;
19089;SDS011;9677;50.656;13.064;2022-11-14T03:09:39;15.77;;;14.17;;
19089;SDS011;9677;50.656;13.064;2022-11-14T03:12:28;15.13;;;13.63;;
19089;SDS011;9677;50.656;13.064;2022-11-14T03:15:15;15.10;;;13.50;;
19089;SDS011;9677;50.656;13.064;2022-11-14T03:18:02;14.87;;;13.37;;
19089;SDS011;9677;50.656;13.064;2022-11-14T03:20:49;14.83;;;13.37;;
19089;SDS011;9677;50.656;13.064;2022-11-14T03:23:36;15.40;;;13.90;;
19089;SDS011;9677;50.656;13.064;2022-11-14T03:26:23;15.07;;;13.47;;
19089;SDS011;9677;50.656;13.064;2022-11-14T03:29:12;15.60;;;14.00;;
19089;SDS011;9677;50.656;13.064;2022-11-14T03:31:59;16.13;;;14.53;;
19089;SDS011;9677;50.656;13.064;2022-11-14T03:34:46;15.30;;;13.80;;
19089;SDS011;9677;50.656;13.064;2022-11-14T03:37:34;16.80;;;15.03;;
19089;SDS011;9677;50.656;13.064;2022-11-14T03:40:21;15.90;;;14.30;;
19089;SDS011;9677;50.656;13.064;2022-11-14T03:43:08;15.53;;;13.93;;
19089;SDS011;9677;50.656;13.064;2022-11-14T03:45:57;16.33;;;14.57;;
19089;SDS011;9677;50.656;13.064;2022-11-14T03:48:46;15.20;;;13.70;;
19089;SDS011;9677;50.656;13.064;2022-11-14T03:51:33;15.77;;;14.20;;
19089;SDS011;9677;50.656;13.064;2022-11-14T03:54:20;15.00;;;13.50;;
19089;SDS011;9677;50.656;13.064;2022-11-14T03:57:07;13.60;;;12.20;;
19089;SDS011;9677;50.656;13.064;2022-11-14T03:59:55;14.77;;;13.27;;
19089;SDS011;9677;50.656;13.064;2022-11-14T04:02:43;15.30;;;13.90;;
19089;SDS011;9677;50.656;13.064;2022-11-14T04:05:30;15.20;;;13.63;;
19089;SDS011;9677;50.656;13.064;2022-11-14T04:08:38;14.50;;;13.10;;
19089;SDS011;9677;50.656;13.064;2022-11-14T04:11:25;14.80;;;13.33;;
19089;SDS011;9677;50.656;13.064;2022-11-14T04:14:12;14.70;;;13.30;;
19089;SDS011;9677;50.656;13.064;2022-11-14T04:17:00;15.27;;;13.53;;
19089;SDS011;9677;50.656;13.064;2022-11-14T04:19:48;14.90;;;13.40;;
19089;SDS011;9677;50.656;13.064;2022-11-14T04:22:35;15.03;;;13.53;;
19089;SDS011;9677;50.656;13.064;2022-11-14T04:25:22;14.20;;;12.77;;
19089;SDS011;9677;50.656;13.064;2022-11-14T04:28:09;15.00;;;13.50;;
19089;SDS011;9677;50.656;13.064;2022-11-14T04:30:56;15.00;;;13.50;;
19089;SDS011;9677;50.656;13.064;2022-11-14T04:33:44;14.00;;;12.47;;
19089;SDS011;9677;50.656;13.064;2022-11-14T04:36:32;18.30;;;13.97;;
19089;SDS011;9677;50.656;13.064;2022-11-14T04:39:19;14.77;;;13.33;;
19089;SDS011;9677;50.656;13.064;2022-11-14T04:42:06;14.93;;;13.43;;
19089;SDS011;9677;50.656;13.064;2022-11-14T04:44:53;16.13;;;14.53;;
19089;SDS011;9677;50.656;13.064;2022-11-14T04:47:41;15.93;;;14.33;;
19089;SDS011;9677;50.656;13.064;2022-11-14T04:50:29;15.43;;;13.93;;
19089;SDS011;9677;50.656;13.064;2022-11-14T04:53:17;15.27;;;13.70;;
19089;SDS011;9677;50.656;13.064;2022-11-14T04:56:04;16.77;;;13.67;;
19089;SDS011;9677;50.656;13.064;2022-11-14T04:58:52;15.87;;;14.30;;
19089;SDS011;9677;50.656;13.064;2022-11-14T05:01:39;16.20;;;14.60;;
19089;SDS011;9677;50.656;13.064;2022-11-14T05:04:27;15.17;;;13.67;;
19089;SDS011;9677;50.656;13.064;2022-11-14T05:07:14;15.10;;;13.57;;
19089;SDS011;9677;50.656;13.064;2022-11-14T05:10:03;14.90;;;13.40;;
19089;SDS011;9677;50.656;13.064;2022-11-14T05:12:52;14.90;;;13.40;;
19089;SDS011;9677;50.656;13.064;2022-11-14T05:15:40;15.43;;;13.67;;
19089;SDS011;9677;50.656;13.064;2022-11-14T05:18:26;15.30;;;13.80;;
19089;SDS011;9677;50.656;13.064;2022-11-14T05:21:14;15.70;;;14.20;;
19089;SDS011;9677;50.656;13.064;2022-11-14T05:24:01;15.23;;;13.60;;
19089;SDS011;9677;50.656;13.064;2022-11-14T05:26:50;14.53;;;12.90;;
19089;SDS011;9677;50.656;13.064;2022-11-14T05:29:38;14.57;;;13.07;;
19089;SDS011;9677;50.656;13.064;2022-11-14T05:32:25;15.50;;;13.10;;
19089;SDS011;9677;50.656;13.064;2022-11-14T05:35:12;14.17;;;12.77;;
19089;SDS011;9677;50.656;13.064;2022-11-14T05:37:59;14.73;;;13.10;;
19089;SDS011;9677;50.656;13.064;2022-11-14T05:40:46;15.13;;;13.73;;
19089;SDS011;9677;50.656;13.064;2022-11-14T05:43:35;15.70;;;14.10;;
19089;SDS011;9677;50.656;13.064;2022-11-14T05:46:22;15.23;;;13.73;;
19089;SDS011;9677;50.656;13.064;2022-11-14T05:49:09;14.60;;;13.10;;
19089;SDS011;9677;50.656;13.064;2022-11-14T05:51:56;15.73;;;14.13;;
19089;SDS011;9677;50.656;13.064;2022-11-14T05:54:43;14.53;;;13.03;;
19089;SDS011;9677;50.656;13.064;2022-11-14T05:57:30;14.87;;;13.37;;
19089;SDS011;9677;50.656;13.064;2022-11-14T06:00:18;16.23;;;14.63;;
19089;SDS011;9677;50.656;13.064;2022-11-14T06:03:06;15.87;;;14.27;;
19089;SDS011;9677;50.656;13.064;2022-11-14T06:05:52;15.83;;;14.13;;
19089;SDS011;9677;50.656;13.064;2022-11-14T06:08:39;16.83;;;15.07;;
19089;SDS011;9677;50.656;13.064;2022-11-14T06:11:27;16.10;;;14.47;;
19089;SDS011;9677;50.656;13.064;2022-11-14T06:14:14;16.20;;;14.60;;
19089;SDS011;9677;50.656;13.064;2022-11-14T06:17:02;16.70;;;14.17;;
19089;SDS011;9677;50.656;13.064;2022-11-14T06:19:49;16.17;;;14.47;;
19089;SDS011;9677;50.656;13.064;2022-11-14T06:22:36;16.53;;;14.87;;
19089;SDS011;9677;50.656;13.064;2022-11-14T06:25:23;15.33;;;13.70;;
19089;SDS011;9677;50.656;13.064;2022-11-14T06:28:10;16.60;;;14.90;;
19089;SDS011;9677;50.656;13.064;2022-11-14T06:30:58;17.13;;;15.33;;
19089;SDS011;9677;50.656;13.064;2022-11-14T06:33:47;16.57;;;14.70;;
19089;SDS011;9677;50.656;13.064;2022-11-14T06:36:34;15.30;;;13.70;;
19089;SDS011;9677;50.656;13.064;2022-11-14T06:39:21;15.67;;;14.07;;
19089;SDS011;9677;50.656;13.064;2022-11-14T06:42:08;15.20;;;13.60;;
19089;SDS011;9677;50.656;13.064;2022-11-14T06:44:54;15.00;;;13.50;;
19089;SDS011;9677;50.656;13.064;2022-11-14T06:47:42;17.10;;;15.10;;
19089;SDS011;9677;50.656;13.064;2022-11-14T06:50:31;15.67;;;14.07;;
19089;SDS011;9677;50.656;13.064;2022-11-14T06:53:18;15.40;;;13.90;;
19089;SDS011;9677;50.656;13.064;2022-11-14T06:56:06;15.20;;;13.70;;
19089;SDS011;9677;50.656;13.064;2022-11-14T06:58:55;14.60;;;13.17;;
19089;SDS011;9677;50.656;13.064;2022-11-14T07:01:42;15.37;;;13.77;;
19089;SDS011;9677;50.656;13.064;2022-11-14T07:04:29;14.30;;;12.90;;
19089;SDS011;9677;50.656;13.064;2022-11-14T07:07:17;14.20;;;12.70;;
19089;SDS011;9677;50.656;13.064;2022-11-14T07:10:04;14.80;;;13.13;;
19089;SDS011;9677;50.656;13.064;2022-11-14T07:12:53;14.27;;;12.77;;
19089;SDS011;9677;50.656;13.064;2022-11-14T07:15:47;14.63;;;13.20;;
19089;SDS011;9677;50.656;13.064;2022-11-14T07:18:36;14.80;;;13.30;;
19089;SDS011;9677;50.656;13.064;2022-11-14T07:21:23;15.50;;;13.97;;
19089;SDS011;9677;50.656;13.064;2022-11-14T07:24:13;15.13;;;13.53;;
19089;SDS011;9677;50.656;13.064;2022-11-14T07:27:00;14.40;;;12.90;;
19089;SDS011;9677;50.656;13.064;2022-11-14T07:29:52;15.63;;;13.93;;
19089;SDS011;9677;50.656;13.064;2022-11-14T07:32:39;15.10;;;13.43;;
19089;SDS011;9677;50.656;13.064;2022-11-14T07:35:26;14.90;;;13.33;;
19089;SDS011;9677;50.656;13.064;2022-11-14T07:38:13;15.03;;;13.40;;
19089;SDS011;9677;50.656;13.064;2022-11-14T07:41:02;15.20;;;13.60;;
19089;SDS011;9677;50.656;13.064;2022-11-14T07:43:52;15.17;;;13.63;;
19089;SDS011;9677;50.656;13.064;2022-11-14T07:46:39;14.67;;;13.20;;
19089;SDS011;9677;50.656;13.064;2022-11-14T07:49:26;15.00;;;13.40;;
19089;SDS011;9677;50.656;13.064;2022-11-14T07:52:13;14.73;;;13.23;;
19089;SDS011;9677;50.656;13.064;2022-11-14T07:55:00;21.00;;;13.37;;
19089;SDS011;9677;50.656;13.064;2022-11-14T07:57:50;15.23;;;13.53;;
19089;SDS011;9677;50.656;13.064;2022-11-14T08:00:39;15.53;;;13.90;;
19089;SDS011;9677;50.656;13.064;2022-11-14T08:03:26;14.50;;;13.03;;
19089;SDS011;9677;50.656;13.064;2022-11-14T08:06:14;16.03;;;14.33;;
19089;SDS011;9677;50.656;13.064;2022-11-14T08:09:02;15.47;;;13.97;;
19089;SDS011;9677;50.656;13.064;2022-11-14T08:11:49;14.30;;;12.80;;
19089;SDS011;9677;50.656;13.064;2022-11-14T08:14:38;14.80;;;13.20;;
19089;SDS011;9677;50.656;13.064;2022-11-14T08:17:25;15.97;;;13.47;;
19089;SDS011;9677;50.656;13.064;2022-11-14T08:20:12;15.77;;;13.93;;
19089;SDS011;9677;50.656;13.064;2022-11-14T08:23:00;14.80;;;13.30;;
19089;SDS011;9677;50.656;13.064;2022-11-14T08:25:49;15.53;;;12.93;;
19089;SDS011;9677;50.656;13.064;2022-11-14T08:28:36;15.20;;;13.60;;
19089;SDS011;9677;50.656;13.064;2022-11-14T08:31:25;17.00;;;14.37;;
19089;SDS011;9677;50.656;13.064;2022-11-14T08:34:12;15.37;;;13.73;;
19089;SDS011;9677;50.656;13.064;2022-11-14T08:37:00;16.37;;;14.57;;
19089;SDS011;9677;50.656;13.064;2022-11-14T08:39:47;16.93;;;14.70;;
19089;SDS011;9677;50.656;13.064;2022-11-14T08:42:34;18.97;;;16.20;;
19089;SDS011;9677;50.656;13.064;2022-11-14T08:45:21;17.03;;;14.43;;
19089;SDS011;9677;50.656;13.064;2022-11-14T08:48:10;17.20;;;15.40;;
19089;SDS011;9677;50.656;13.064;2022-11-14T08:50:57;16.10;;;14.37;;
19089;SDS011;9677;50.656;13.064;2022-11-14T08:53:48;16.33;;;13.93;;
19089;SDS011;9677;50.656;13.064;2022-11-14T08:56:36;16.60;;;14.60;;
19089;SDS011;9677;50.656;13.064;2022-11-14T08:59:23;16.30;;;14.60;;
19089;SDS011;9677;50.656;13.064;2022-11-14T09:02:10;19.53;;;15.27;;
19089;SDS011;9677;50.656;13.064;2022-11-14T09:05:00;16.93;;;14.40;;
19089;SDS011;9677;50.656;13.064;2022-11-14T09:07:47;16.00;;;14.30;;
19089;SDS011;9677;50.656;13.064;2022-11-14T09:10:34;16.90;;;14.50;;
19089;SDS011;9677;50.656;13.064;2022-11-14T09:13:22;15.23;;;13.67;;
19089;SDS011;9677;50.656;13.064;2022-11-14T09:16:12;15.47;;;13.87;;
19089;SDS011;9677;50.656;13.064;2022-11-14T09:18:59;16.23;;;14.53;;
19089;SDS011;9677;50.656;13.064;2022-11-14T09:21:47;16.00;;;14.20;;
19089;SDS011;9677;50.656;13.064;2022-11-14T09:24:34;14.60;;;12.13;;
19089;SDS011;9677;50.656;13.064;2022-11-14T09:27:21;14.50;;;12.60;;
19089;SDS011;9677;50.656;13.064;2022-11-14T09:30:09;14.57;;;13.07;;
19089;SDS011;9677;50.656;13.064;2022-11-14T09:32:58;14.23;;;12.83;;
19089;SDS011;9677;50.656;13.064;2022-11-14T09:35:55;13.97;;;12.47;;
19089;SDS011;9677;50.656;13.064;2022-11-14T09:38:44;14.13;;;12.73;;
19089;SDS011;9677;50.656;13.064;2022-11-14T09:41:36;14.30;;;12.97;;
19089;SDS011;9677;50.656;13.064;2022-11-14T09:47:42;13.33;;;11.93;;
19089;SDS011;9677;50.656;13.064;2022-11-14T09:50:33;14.60;;;13.10;;
19089;SDS011;9677;50.656;13.064;2022-11-14T09:53:25;13.73;;;12.03;;
19089;SDS011;9677;50.656;13.064;2022-11-14T09:56:21;14.00;;;12.60;;
19089;SDS011;9677;50.656;13.064;2022-11-14T09:59:10;14.13;;;12.73;;
19089;SDS011;9677;50.656;13.064;2022-11-14T10:01:59;13.50;;;12.10;;
19089;SDS011;9677;50.656;13.064;2022-11-14T10:05:00;14.57;;;13.07;;
19089;SDS011;9677;50.656;13.064;2022-11-14T10:08:06;13.97;;;12.57;;
19089;SDS011;9677;50.656;13.064;2022-11-14T10:11:30;13.90;;;12.60;;
19089;SDS011;9677;50.656;13.064;2022-11-14T10:17:38;14.07;;;12.53;;
19089;SDS011;9677;50.656;13.064;2022-11-14T10:20:43;14.60;;;13.10;;
19089;SDS011;9677;50.656;13.064;2022-11-14T10:23:37;14.63;;;13.13;;
19089;SDS011;9677;50.656;13.064;2022-11-14T10:26:34;14.00;;;12.60;;
19089;SDS011;9677;50.656;13.064;2022-11-14T10:29:30;14.50;;;13.10;;
19089;SDS011;9677;50.656;13.064;2022-11-14T10:33:07;15.80;;;13.90;;
19089;SDS011;9677;50.656;13.064;2022-11-14T10:36:10;14.10;;;12.70;;
19089;SDS011;9677;50.656;13.064;2022-11-14T10:39:10;15.10;;;13.60;;
19089;SDS011;9677;50.656;13.064;2022-11-14T10:42:08;14.63;;;13.23;;
19089;SDS011;9677;50.656;13.064;2022-11-14T10:45:01;15.57;;;13.97;;
19089;SDS011;9677;50.656;13.064;2022-11-14T10:47:57;14.37;;;12.87;;
19089;SDS011;9677;50.656;13.064;2022-11-14T10:50:50;14.40;;;12.90;;
19089;SDS011;9677;50.656;13.064;2022-11-14T10:53:49;14.50;;;12.90;;
19089;SDS011;9677;50.656;13.064;2022-11-14T10:56:46;14.77;;;13.30;;
19089;SDS011;9677;50.656;13.064;2022-11-14T10:59:35;13.47;;;12.17;;
19089;SDS011;9677;50.656;13.064;2022-11-14T11:02:22;14.17;;;12.77;;
19089;SDS011;9677;50.656;13.064;2022-11-14T11:05:11;13.87;;;12.40;;
19089;SDS011;9677;50.656;13.064;2022-11-14T11:08:02;13.67;;;12.27;;
19089;SDS011;9677;50.656;13.064;2022-11-14T11:11:27;15.13;;;12.90;;
19089;SDS011;9677;50.656;13.064;2022-11-14T11:14:15;14.30;;;12.80;;
19089;SDS011;9677;50.656;13.064;2022-11-14T11:17:08;13.70;;;12.30;;
19089;SDS011;9677;50.656;13.064;2022-11-14T11:20:21;13.90;;;12.50;;
19089;SDS011;9677;50.656;13.064;2022-11-14T11:23:17;13.97;;;12.57;;
19089;SDS011;9677;50.656;13.064;2022-11-14T11:26:14;14.30;;;12.80;;
19089;SDS011;9677;50.656;13.064;2022-11-14T11:29:15;14.20;;;12.80;;
19089;SDS011;9677;50.656;13.064;2022-11-14T11:32:05;14.13;;;12.63;;
19089;SDS011;9677;50.656;13.064;2022-11-14T11:34:55;13.10;;;11.80;;
19089;SDS011;9677;50.656;13.064;2022-11-14T11:37:45;13.40;;;11.67;;
19089;SDS011;9677;50.656;13.064;2022-11-14T11:40:38;13.60;;;12.20;;
19089;SDS011;9677;50.656;13.064;2022-11-14T11:43:29;17.40;;;12.70;;
19089;SDS011;9677;50.656;13.064;2022-11-14T11:46:25;14.60;;;13.10;;
19089;SDS011;9677;50.656;13.064;2022-11-14T11:49:23;14.50;;;13.10;;
19089;SDS011;9677;50.656;13.064;2022-11-14T11:52:26;15.10;;;13.43;;
19089;SDS011;9677;50.656;13.064;2022-11-14T11:55:19;15.20;;;12.90;;
19089;SDS011;9677;50.656;13.064;2022-11-14T11:58:11;14.43;;;12.93;;
19089;SDS011;9677;50.656;13.064;2022-11-14T12:01:08;15.00;;;13.47;;
19089;SDS011;9677;50.656;13.064;2022-11-14T12:03:56;14.13;;;12.73;;
19089;SDS011;9677;50.656;13.064;2022-11-14T12:06:48;13.73;;;12.33;;
19089;SDS011;9677;50.656;13.064;2022-11-14T12:09:55;14.20;;;12.57;;
19089;SDS011;9677;50.656;13.064;2022-11-14T12:13:13;14.27;;;12.87;;
19089;SDS011;9677;50.656;13.064;2022-11-14T12:16:37;15.33;;;13.73;;
19089;SDS011;9677;50.656;13.064;2022-11-14T12:20:29;14.50;;;13.00;;
19089;SDS011;9677;50.656;13.064;2022-11-14T12:27:33;13.27;;;11.87;;
19089;SDS011;9677;50.656;13.064;2022-11-14T12:30:34;13.93;;;12.53;;
19089;SDS011;9677;50.656;13.064;2022-11-14T12:33:25;13.87;;;12.20;;
19089;SDS011;9677;50.656;13.064;2022-11-14T12:36:17;13.80;;;12.40;;
19089;SDS011;9677;50.656;13.064;2022-11-14T12:39:03;14.30;;;12.90;;
19089;SDS011;9677;50.656;13.064;2022-11-14T12:41:59;13.63;;;12.23;;
19089;SDS011;9677;50.656;13.064;2022-11-14T12:44:48;13.97;;;12.47;;
19089;SDS011;9677;50.656;13.064;2022-11-14T12:47:36;14.30;;;12.73;;
19089;SDS011;9677;50.656;13.064;2022-11-14T12:51:01;13.67;;;12.27;;
19089;SDS011;9677;50.656;13.064;2022-11-14T12:53:51;14.30;;;12.87;;
19089;SDS011;9677;50.656;13.064;2022-11-14T12:56:42;15.17;;;13.57;;
19089;SDS011;9677;50.656;13.064;2022-11-14T12:59:50;15.20;;;12.27;;
19089;SDS011;9677;50.656;13.064;2022-11-14T13:03:19;13.97;;;12.30;;
19089;SDS011;9677;50.656;13.064;2022-11-14T13:06:25;15.83;;;13.23;;
19089;SDS011;9677;50.656;13.064;2022-11-14T13:09:33;14.63;;;13.03;;
19089;SDS011;9677;50.656;13.064;2022-11-14T13:12:29;13.80;;;12.40;;
19089;SDS011;9677;50.656;13.064;2022-11-14T13:15:46;14.50;;;13.00;;
19089;SDS011;9677;50.656;13.064;2022-11-14T13:18:54;14.97;;;13.27;;
19089;SDS011;9677;50.656;13.064;2022-11-14T13:22:19;14.43;;;12.93;;
19089;SDS011;9677;50.656;13.064;2022-11-14T13:25:24;15.10;;;13.23;;
19089;SDS011;9677;50.656;13.064;2022-11-14T13:31:45;14.50;;;13.03;;
19089;SDS011;9677;50.656;13.064;2022-11-14T13:34:36;15.30;;;13.30;;
19089;SDS011;9677;50.656;13.064;2022-11-14T13:40:51;17.13;;;13.77;;
19089;SDS011;9677;50.656;13.064;2022-11-14T13:43:56;16.50;;;13.93;;
19089;SDS011;9677;50.656;13.064;2022-11-14T13:47:31;16.30;;;14.40;;
19089;SDS011;9677;50.656;13.064;2022-11-14T13:50:58;14.60;;;13.10;;
19089;SDS011;9677;50.656;13.064;2022-11-14T13:54:10;15.37;;;12.93;;
19089;SDS011;9677;50.656;13.064;2022-11-14T13:57:04;13.77;;;12.23;;
19089;SDS011;9677;50.656;13.064;2022-11-14T14:00:06;14.40;;;13.00;;
19089;SDS011;9677;50.656;13.064;2022-11-14T14:03:12;15.53;;;13.93;;
19089;SDS011;9677;50.656;13.064;2022-11-14T14:06:27;14.87;;;13.23;;
19089;SDS011;9677;50.656;13.064;2022-11-14T14:09:30;14.20;;;12.70;;
19089;SDS011;9677;50.656;13.064;2022-11-14T14:12:26;15.00;;;13.40;;
19089;SDS011;9677;50.656;13.064;2022-11-14T14:15:40;15.80;;;13.87;;
19089;SDS011;9677;50.656;13.064;2022-11-14T14:18:42;15.83;;;13.90;;
19089;SDS011;9677;50.656;13.064;2022-11-14T14:21:39;15.90;;;13.03;;
19089;SDS011;9677;50.656;13.064;2022-11-14T14:24:38;15.80;;;13.93;;
19089;SDS011;9677;50.656;13.064;2022-11-14T14:27:38;16.43;;;14.20;;
19089;SDS011;9677;50.656;13.064;2022-11-14T14:30:39;13.97;;;12.57;;
19089;SDS011;9677;50.656;13.064;2022-11-14T14:33:26;14.40;;;12.90;;
19089;SDS011;9677;50.656;13.064;2022-11-14T14:36:35;14.73;;;13.13;;
19089;SDS011;9677;50.656;13.064;2022-11-14T14:39:23;15.27;;;13.50;;
19089;SDS011;9677;50.656;13.064;2022-11-14T14:42:12;14.97;;;13.33;;
19089;SDS011;9677;50.656;13.064;2022-11-14T14:45:03;14.53;;;12.83;;
19089;SDS011;9677;50.656;13.064;2022-11-14T14:48:00;15.33;;;13.73;;
19089;SDS011;9677;50.656;13.064;2022-11-14T14:50:50;16.00;;;14.30;;
19089;SDS011;9677;50.656;13.064;2022-11-14T14:53:48;14.90;;;13.27;;
19089;SDS011;9677;50.656;13.064;2022-11-14T14:56:38;17.93;;;13.83;;
19089;SDS011;9677;50.656;13.064;2022-11-14T14:59:26;14.63;;;13.13;;
19089;SDS011;9677;50.656;13.064;2022-11-14T15:02:15;14.97;;;13.37;;
19089;SDS011;9677;50.656;13.064;2022-11-14T15:05:04;15.20;;;13.60;;
19089;SDS011;9677;50.656;13.064;2022-11-14T15:07:52;15.23;;;13.60;;
19089;SDS011;9677;50.656;13.064;2022-11-14T15:11:05;17.03;;;14.33;;
19089;SDS011;9677;50.656;13.064;2022-11-14T15:13:54;15.57;;;13.57;;
19089;SDS011;9677;50.656;13.064;2022-11-14T15:16:43;15.17;;;13.57;;
19089;SDS011;9677;50.656;13.064;2022-11-14T15:19:36;15.10;;;13.57;;
19089;SDS011;9677;50.656;13.064;2022-11-14T15:22:26;17.27;;;15.00;;
19089;SDS011;9677;50.656;13.064;2022-11-14T15:25:17;15.20;;;13.40;;
19089;SDS011;9677;50.656;13.064;2022-11-14T15:28:14;17.27;;;13.50;;
19089;SDS011;9677;50.656;13.064;2022-11-14T15:31:04;17.40;;;14.23;;
19089;SDS011;9677;50.656;13.064;2022-11-14T15:34:02;14.93;;;13.43;;
19089;SDS011;9677;50.656;13.064;2022-11-14T15:37:05;14.83;;;13.33;;
19089;SDS011;9677;50.656;13.064;2022-11-14T15:40:14;13.40;;;12.10;;
19089;SDS011;9677;50.656;13.064;2022-11-14T15:46:39;15.30;;;13.70;;
19089;SDS011;9677;50.656;13.064;2022-11-14T15:49:28;13.97;;;12.57;;
19089;SDS011;9677;50.656;13.064;2022-11-14T15:52:19;15.73;;;14.13;;
19089;SDS011;9677;50.656;13.064;2022-11-14T15:55:11;15.80;;;14.07;;
19089;SDS011;9677;50.656;13.064;2022-11-14T15:58:02;15.07;;;13.07;;
19089;SDS011;9677;50.656;13.064;2022-11-14T16:01:12;14.87;;;13.27;;
19089;SDS011;9677;50.656;13.064;2022-11-14T16:04:13;14.70;;;13.20;;
19089;SDS011;9677;50.656;13.064;2022-11-14T16:07:02;14.53;;;13.03;;
19089;SDS011;9677;50.656;13.064;2022-11-14T16:09:51;15.20;;;13.70;;
19089;SDS011;9677;50.656;13.064;2022-11-14T16:12:39;14.40;;;12.90;;
19089;SDS011;9677;50.656;13.064;2022-11-14T16:15:26;14.37;;;12.40;;
19089;SDS011;9677;50.656;13.064;2022-11-14T16:18:14;15.93;;;13.40;;
19089;SDS011;9677;50.656;13.064;2022-11-14T16:21:01;15.33;;;13.73;;
19089;SDS011;9677;50.656;13.064;2022-11-14T16:23:49;15.43;;;13.83;;
19089;SDS011;9677;50.656;13.064;2022-11-14T16:26:36;15.00;;;13.40;;
19089;SDS011;9677;50.656;13.064;2022-11-14T16:29:24;15.07;;;13.40;;
19089;SDS011;9677;50.656;13.064;2022-11-14T16:32:11;15.10;;;13.50;;
19089;SDS011;9677;50.656;13.064;2022-11-14T16:35:00;15.10;;;13.60;;
19089;SDS011;9677;50.656;13.064;2022-11-14T16:37:47;18.02;;;15.10;;
19089;SDS011;9677;50.656;13.064;2022-11-14T16:40:34;18.95;;;16.17;;
19089;SDS011;9677;50.656;13.064;2022-11-14T16:43:42;21.67;;;16.97;;
19089;SDS011;9677;50.656;13.064;2022-11-14T16:46:29;18.17;;;15.30;;
19089;SDS011;9677;50.656;13.064;2022-11-14T16:49:17;17.67;;;15.10;;
19089;SDS011;9677;50.656;13.064;2022-11-14T16:52:07;15.83;;;14.23;;
19089;SDS011;9677;50.656;13.064;2022-11-14T16:54:55;17.03;;;14.70;;
19089;SDS011;9677;50.656;13.064;2022-11-14T16:57:42;15.17;;;13.57;;
19089;SDS011;9677;50.656;13.064;2022-11-14T17:00:49;15.33;;;13.40;;
19089;SDS011;9677;50.656;13.064;2022-11-14T17:03:36;16.30;;;13.53;;
19089;SDS011;9677;50.656;13.064;2022-11-14T17:06:23;14.67;;;13.10;;
19089;SDS011;9677;50.656;13.064;2022-11-14T17:09:12;15.40;;;13.60;;